Time;durP1;ratioP1;P1;durP2;ratioP2;P2;SDS_P1;SDS_P2;PMS_P1;PMS_P2;Temp;Humidity;BMP_temperature;BMP_pressure;BME280_temperature;BME280_humidity;BME280_pressure;Samples;Min_cycle;Max_cycle;Signal;HPM_P1;HPM_P2
2022/03/07 00:01:51;;;;;;;;;61.75;50.00;;;;;;;;5067977;27;51130;-57
2022/03/07 00:04:17;;;;;;;;;61.25;50.25;;;;;;;;5074511;27;51145;-58
2022/03/07 00:06:42;;;;;;;;;62.75;48.50;;;;;;;;5072633;27;51148;-57
2022/03/07 00:09:07;;;;;;;;;63.75;52.50;;;;;;;;5068431;27;51136;-58
2022/03/07 00:11:34;;;;;;;;;56.25;46.75;;;;;;;;5073201;27;51157;-57
2022/03/07 00:13:59;;;;;;;;;61.00;50.25;;;;;;;;5079204;27;51499;-58
2022/03/07 00:16:24;;;;;;;;;64.25;51.75;;;;;;;;5072667;27;51086;-59
2022/03/07 00:18:49;;;;;;;;;59.50;49.50;;;;;;;;5073855;27;51635;-59
2022/03/07 00:21:14;;;;;;;;;58.75;47.50;;;;;;;;5073493;27;51103;-58
2022/03/07 00:23:40;;;;;;;;;53.25;46.00;;;;;;;;5073607;27;51310;-59
2022/03/07 00:26:05;;;;;;;;;61.25;51.00;;;;;;;;5073725;27;52269;-58
2022/03/07 00:28:30;;;;;;;;;59.50;49.25;;;;;;;;5073844;28;51367;-58
2022/03/07 00:30:55;;;;;;;;;57.75;49.00;;;;;;;;5074682;27;50977;-57
2022/03/07 00:33:21;;;;;;;;;44.25;40.50;;;;;;;;5072751;27;51230;-58
2022/03/07 00:35:46;;;;;;;;;61.75;51.00;;;;;;;;5074295;28;51195;-60
2022/03/07 00:38:11;;;;;;;;;62.75;51.75;;;;;;;;5072608;27;51175;-58
2022/03/07 00:40:36;;;;;;;;;59.00;48.25;;;;;;;;5070248;28;51223;-58
2022/03/07 00:43:05;;;;;;;;;62.00;51.00;;;;;;;;5072641;27;51051;-57
2022/03/07 00:45:31;;;;;;;;;59.25;47.75;;;;;;;;5073069;27;51903;-58
2022/03/07 00:47:56;;;;;;;;;58.25;48.00;;;;;;;;5072687;27;51155;-58
2022/03/07 00:50:21;;;;;;;;;58.00;49.75;;;;;;;;5072646;27;51489;-58
2022/03/07 00:52:46;;;;;;;;;59.50;48.00;;;;;;;;5071433;27;51508;-57
2022/03/07 00:55:11;;;;;;;;;62.25;49.75;;;;;;;;5072639;27;51915;-58
2022/03/07 00:57:37;;;;;;;;;44.25;40.00;;;;;;;;5070884;27;51210;-59
2022/03/07 01:00:03;;;;;;;;;57.50;45.50;;;;;;;;5073283;27;51185;-58
2022/03/07 01:02:28;;;;;;;;;53.50;46.00;;;;;;;;5072678;27;52523;-59
2022/03/07 01:04:55;;;;;;;;;62.50;49.50;;;;;;;;5072528;27;51170;-58
2022/03/07 01:07:20;;;;;;;;;56.25;46.25;;;;;;;;5071464;27;51172;-60
2022/03/07 01:09:46;;;;;;;;;45.25;40.25;;;;;;;;5073782;27;51040;-58
2022/03/07 01:12:11;;;;;;;;;62.25;50.25;;;;;;;;5065612;28;50914;-57
2022/03/07 01:14:36;;;;;;;;;52.25;43.50;;;;;;;;5071757;27;52380;-58
2022/03/07 01:17:01;;;;;;;;;60.00;48.25;;;;;;;;5072877;28;51015;-58
2022/03/07 01:19:27;;;;;;;;;50.00;44.00;;;;;;;;5071764;27;51279;-57
2022/03/07 01:21:52;;;;;;;;;47.25;42.75;;;;;;;;5074355;27;51202;-58
2022/03/07 01:24:17;;;;;;;;;55.50;47.25;;;;;;;;5089160;27;53350;-58
2022/03/07 01:26:43;;;;;;;;;54.50;44.50;;;;;;;;5074030;27;51045;-58
2022/03/07 01:29:08;;;;;;;;;61.25;48.75;;;;;;;;5070046;27;51137;-58
2022/03/07 01:31:33;;;;;;;;;60.25;48.75;;;;;;;;5073778;27;51201;-58
2022/03/07 01:33:58;;;;;;;;;55.50;46.50;;;;;;;;5070771;27;51160;-59
2022/03/07 01:36:24;;;;;;;;;56.00;48.25;;;;;;;;5072526;28;50887;-58
2022/03/07 01:38:49;;;;;;;;;55.25;46.50;;;;;;;;5071268;27;50912;-58
2022/03/07 01:41:14;;;;;;;;;54.00;45.00;;;;;;;;5073363;27;51221;-58
2022/03/07 01:43:41;;;;;;;;;51.00;44.75;;;;;;;;5073399;27;51993;-59
2022/03/07 01:46:08;;;;;;;;;47.75;41.50;;;;;;;;5071195;27;50989;-60
2022/03/07 01:48:34;;;;;;;;;45.75;41.00;;;;;;;;5073771;28;51143;-59
2022/03/07 01:50:59;;;;;;;;;57.00;47.75;;;;;;;;5066204;27;51325;-58
2022/03/07 01:53:25;;;;;;;;;53.00;45.50;;;;;;;;5073180;28;52051;-58
2022/03/07 01:55:50;;;;;;;;;50.00;40.50;;;;;;;;5074033;28;51048;-58
2022/03/07 01:58:15;;;;;;;;;53.50;44.75;;;;;;;;5072335;28;50941;-58
2022/03/07 02:00:40;;;;;;;;;56.50;44.25;;;;;;;;5073483;27;50886;-58
2022/03/07 02:03:06;;;;;;;;;51.75;43.50;;;;;;;;5059658;28;51068;-58
2022/03/07 02:05:32;;;;;;;;;47.00;41.00;;;;;;;;5074100;28;51040;-58
2022/03/07 02:07:57;;;;;;;;;49.00;44.00;;;;;;;;5072898;28;51155;-58
2022/03/07 02:10:25;;;;;;;;;48.50;43.50;;;;;;;;5072645;28;51172;-59
2022/03/07 02:12:50;;;;;;;;;56.00;47.00;;;;;;;;5073300;27;51154;-58
2022/03/07 02:15:16;;;;;;;;;52.25;44.00;;;;;;;;5073229;28;50869;-58
2022/03/07 02:17:45;;;;;;;;;48.25;43.50;;;;;;;;5065108;27;50821;-58
2022/03/07 02:20:12;;;;;;;;;46.50;39.00;;;;;;;;5072607;28;51452;-58
2022/03/07 02:22:38;;;;;;;;;51.50;43.75;;;;;;;;5072657;28;51864;-58
2022/03/07 02:25:03;;;;;;;;;54.75;44.50;;;;;;;;5073676;27;50972;-59
2022/03/07 02:27:28;;;;;;;;;49.00;44.00;;;;;;;;5073868;28;51064;-59
2022/03/07 02:29:54;;;;;;;;;40.25;39.25;;;;;;;;5072154;28;51216;-58
2022/03/07 02:32:20;;;;;;;;;47.00;40.50;;;;;;;;5055155;28;53987;-58
2022/03/07 02:34:46;;;;;;;;;50.50;41.75;;;;;;;;5071443;28;50966;-58
2022/03/07 02:37:11;;;;;;;;;45.25;40.50;;;;;;;;5072704;27;51125;-58
2022/03/07 02:39:36;;;;;;;;;46.00;40.25;;;;;;;;5076878;27;51361;-59
2022/03/07 02:42:02;;;;;;;;;47.25;40.00;;;;;;;;5071392;28;51996;-58
2022/03/07 02:44:27;;;;;;;;;56.25;45.25;;;;;;;;5070540;28;51136;-58
2022/03/07 02:46:52;;;;;;;;;42.75;41.00;;;;;;;;5067377;28;51150;-58
2022/03/07 02:49:17;;;;;;;;;46.50;42.25;;;;;;;;5071401;28;50930;-59
2022/03/07 02:51:42;;;;;;;;;42.00;36.00;;;;;;;;5067452;28;51871;-59
2022/03/07 02:54:08;;;;;;;;;58.50;44.50;;;;;;;;5068500;27;51013;-59
2022/03/07 02:56:33;;;;;;;;;45.75;40.75;;;;;;;;5071168;27;51664;-59
2022/03/07 02:58:59;;;;;;;;;46.00;41.00;;;;;;;;5070965;27;51305;-59
2022/03/07 03:01:24;;;;;;;;;42.75;39.00;;;;;;;;5070701;28;52117;-59
2022/03/07 03:03:49;;;;;;;;;48.75;41.00;;;;;;;;5073064;28;51057;-58
2022/03/07 03:06:14;;;;;;;;;47.00;42.25;;;;;;;;5071046;28;51014;-59
2022/03/07 03:08:40;;;;;;;;;45.75;42.50;;;;;;;;5058956;28;51009;-59
2022/03/07 03:11:05;;;;;;;;;49.75;41.50;;;;;;;;5071636;28;52256;-59
2022/03/07 03:13:30;;;;;;;;;48.75;43.50;;;;;;;;5070830;28;51287;-59
2022/03/07 03:15:56;;;;;;;;;43.75;40.25;;;;;;;;5070354;28;51237;-59
2022/03/07 03:18:21;;;;;;;;;46.25;39.50;;;;;;;;5073484;27;51161;-59
2022/03/07 03:20:47;;;;;;;;;46.50;42.00;;;;;;;;5063583;28;53590;-59
2022/03/07 03:23:13;;;;;;;;;48.75;40.75;;;;;;;;5070305;28;51017;-58
2022/03/07 03:25:38;;;;;;;;;47.50;41.75;;;;;;;;5058991;28;51062;-59
2022/03/07 03:28:03;;;;;;;;;53.00;43.75;;;;;;;;5072858;27;51124;-59
2022/03/07 03:30:29;;;;;;;;;44.00;41.25;;;;;;;;5070919;28;51135;-58
2022/03/07 03:32:54;;;;;;;;;43.00;39.25;;;;;;;;5072612;28;51084;-60
2022/03/07 03:35:20;;;;;;;;;46.00;40.50;;;;;;;;5068197;28;50861;-58
2022/03/07 03:37:45;;;;;;;;;47.50;41.00;;;;;;;;5074313;27;51460;-59
2022/03/07 03:40:11;;;;;;;;;39.50;38.50;;;;;;;;5070865;27;51097;-58
2022/03/07 03:42:36;;;;;;;;;38.25;36.25;;;;;;;;5068924;27;51112;-58
2022/03/07 03:45:05;;;;;;;;;44.25;39.00;;;;;;;;5070691;27;51053;-59
2022/03/07 03:47:30;;;;;;;;;45.75;37.75;;;;;;;;5067930;28;51346;-59
2022/03/07 03:49:55;;;;;;;;;46.00;40.75;;;;;;;;5072102;28;51066;-59
2022/03/07 03:52:21;;;;;;;;;47.50;41.25;;;;;;;;5071232;28;51044;-59
2022/03/07 03:54:46;;;;;;;;;49.25;42.25;;;;;;;;5071954;27;51522;-59
2022/03/07 03:57:11;;;;;;;;;39.75;36.25;;;;;;;;5069210;27;51273;-59
2022/03/07 03:59:36;;;;;;;;;45.00;42.25;;;;;;;;5071272;27;51837;-58
2022/03/07 04:02:02;;;;;;;;;39.25;38.25;;;;;;;;5068867;28;51035;-58
2022/03/07 04:04:27;;;;;;;;;41.50;38.25;;;;;;;;5072328;28;51185;-58
2022/03/07 04:06:52;;;;;;;;;40.50;37.25;;;;;;;;5070820;28;51321;-59
2022/03/07 04:09:18;;;;;;;;;43.00;39.00;;;;;;;;5071658;28;51192;-59
2022/03/07 04:11:44;;;;;;;;;40.75;38.50;;;;;;;;5069445;28;51215;-58
2022/03/07 04:14:09;;;;;;;;;54.75;41.50;;;;;;;;5068616;28;51116;-58
2022/03/07 04:16:38;;;;;;;;;41.75;39.50;;;;;;;;5067419;28;51088;-59
2022/03/07 04:19:04;;;;;;;;;41.25;40.25;;;;;;;;5061080;28;51905;-59
2022/03/07 04:21:29;;;;;;;;;49.50;43.75;;;;;;;;5068264;27;51198;-57
2022/03/07 04:23:55;;;;;;;;;37.00;35.25;;;;;;;;5070307;28;51009;-59
2022/03/07 04:26:20;;;;;;;;;37.25;37.25;;;;;;;;5071080;27;51278;-58
2022/03/07 04:28:45;;;;;;;;;46.50;41.75;;;;;;;;5072215;28;51901;-58
2022/03/07 04:31:11;;;;;;;;;39.75;38.75;;;;;;;;5057927;28;51171;-59
2022/03/07 04:33:36;;;;;;;;;44.50;40.50;;;;;;;;5069274;27;51033;-59
2022/03/07 04:36:01;;;;;;;;;41.25;39.50;;;;;;;;5068301;28;51129;-59
2022/03/07 04:38:27;;;;;;;;;43.25;40.25;;;;;;;;5067247;27;51895;-59
2022/03/07 04:40:52;;;;;;;;;43.50;41.25;;;;;;;;5069413;27;51092;-59
2022/03/07 04:43:18;;;;;;;;;40.00;39.50;;;;;;;;5073713;27;51310;-58
2022/03/07 04:45:43;;;;;;;;;41.75;38.25;;;;;;;;5074665;28;51143;-58
2022/03/07 04:48:08;;;;;;;;;38.50;35.75;;;;;;;;5075364;28;51170;-59
2022/03/07 04:50:34;;;;;;;;;44.25;37.75;;;;;;;;5073010;28;51032;-58
2022/03/07 04:52:59;;;;;;;;;44.00;35.75;;;;;;;;5071550;27;51011;-58
2022/03/07 04:55:24;;;;;;;;;44.00;40.75;;;;;;;;5070937;28;51049;-59
2022/03/07 04:57:49;;;;;;;;;41.50;37.00;;;;;;;;5069844;28;51002;-58
2022/03/07 05:00:15;;;;;;;;;42.50;39.25;;;;;;;;5073872;28;50889;-58
2022/03/07 05:02:40;;;;;;;;;39.25;36.25;;;;;;;;5073898;28;51020;-58
2022/03/07 05:05:05;;;;;;;;;44.00;42.25;;;;;;;;5067372;27;51352;-58
2022/03/07 05:07:30;;;;;;;;;37.75;36.25;;;;;;;;5074468;27;51935;-58
2022/03/07 05:09:56;;;;;;;;;44.25;41.75;;;;;;;;5073493;28;51151;-58
2022/03/07 05:12:21;;;;;;;;;37.50;35.75;;;;;;;;5074676;28;50984;-58
2022/03/07 05:14:46;;;;;;;;;39.75;39.75;;;;;;;;5074128;28;50901;-58
2022/03/07 05:17:11;;;;;;;;;46.00;37.00;;;;;;;;5065443;28;51818;-58
2022/03/07 05:19:36;;;;;;;;;44.25;42.00;;;;;;;;5072566;27;51029;-59
2022/03/07 05:22:02;;;;;;;;;56.50;47.50;;;;;;;;5067473;27;51083;-59
2022/03/07 05:24:27;;;;;;;;;39.00;35.00;;;;;;;;5073306;27;51084;-59
2022/03/07 05:26:52;;;;;;;;;46.50;38.50;;;;;;;;5068725;27;51242;-58
2022/03/07 05:29:18;;;;;;;;;42.00;37.25;;;;;;;;5074376;28;50919;-59
2022/03/07 05:31:43;;;;;;;;;40.75;35.75;;;;;;;;5072465;27;51130;-59
2022/03/07 05:34:08;;;;;;;;;50.75;42.00;;;;;;;;5073087;28;51181;-59
2022/03/07 05:36:34;;;;;;;;;40.50;37.00;;;;;;;;5070994;28;51922;-58
2022/03/07 05:38:59;;;;;;;;;46.00;41.00;;;;;;;;5069724;27;51192;-58
2022/03/07 05:41:24;;;;;;;;;43.25;36.75;;;;;;;;5074140;27;51250;-58
2022/03/07 05:43:49;;;;;;;;;41.50;39.50;;;;;;;;5071394;28;51377;-58
2022/03/07 05:46:15;;;;;;;;;40.75;36.00;;;;;;;;5069115;27;51000;-58
2022/03/07 05:48:40;;;;;;;;;46.25;41.75;;;;;;;;5071153;28;51006;-58
2022/03/07 05:51:05;;;;;;;;;42.25;40.75;;;;;;;;5073475;28;50978;-58
2022/03/07 05:53:30;;;;;;;;;39.50;36.50;;;;;;;;5071909;28;51178;-58
2022/03/07 05:55:56;;;;;;;;;41.50;37.25;;;;;;;;5069993;28;51831;-59
2022/03/07 05:58:21;;;;;;;;;42.50;37.50;;;;;;;;5074413;28;50955;-58
2022/03/07 06:00:46;;;;;;;;;39.75;37.75;;;;;;;;5071957;27;51111;-58
2022/03/07 06:03:12;;;;;;;;;45.75;42.00;;;;;;;;5072519;28;51072;-58
2022/03/07 06:05:37;;;;;;;;;52.25;43.75;;;;;;;;5073269;27;51577;-58
2022/03/07 06:08:03;;;;;;;;;40.00;31.75;;;;;;;;5074046;28;50972;-58
2022/03/07 06:10:28;;;;;;;;;41.75;36.50;;;;;;;;5069061;27;50985;-58
2022/03/07 06:12:54;;;;;;;;;47.50;40.25;;;;;;;;5063987;27;51332;-58
2022/03/07 06:15:20;;;;;;;;;50.00;42.50;;;;;;;;5073441;28;51932;-58
2022/03/07 06:17:50;;;;;;;;;34.25;28.50;;;;;;;;5073471;28;50991;-59
2022/03/07 06:20:16;;;;;;;;;48.75;41.50;;;;;;;;5072255;27;51043;-59
2022/03/07 06:22:41;;;;;;;;;43.00;40.75;;;;;;;;5073723;28;51349;-58
2022/03/07 06:25:06;;;;;;;;;39.50;37.75;;;;;;;;5073183;27;50908;-59
2022/03/07 06:27:32;;;;;;;;;36.00;34.25;;;;;;;;5073283;28;51052;-59
2022/03/07 06:29:57;;;;;;;;;47.00;37.25;;;;;;;;5064356;27;51212;-59
2022/03/07 06:32:24;;;;;;;;;34.00;31.00;;;;;;;;5073195;28;51366;-59
2022/03/07 06:34:50;;;;;;;;;40.25;38.25;;;;;;;;5072668;28;51271;-59
2022/03/07 06:37:15;;;;;;;;;29.00;26.75;;;;;;;;5069738;27;50904;-59
2022/03/07 06:39:40;;;;;;;;;36.00;34.25;;;;;;;;5067286;27;51060;-59
2022/03/07 06:42:05;;;;;;;;;43.75;35.75;;;;;;;;5068594;27;51017;-60
2022/03/07 06:44:31;;;;;;;;;49.00;41.75;;;;;;;;5065129;27;51127;-58
2022/03/07 06:46:56;;;;;;;;;41.75;36.25;;;;;;;;5067508;27;51169;-58
2022/03/07 06:49:21;;;;;;;;;40.75;37.50;;;;;;;;5066916;27;51017;-58
2022/03/07 06:51:46;;;;;;;;;47.25;40.75;;;;;;;;5070064;27;50937;-58
2022/03/07 06:54:12;;;;;;;;;42.00;38.50;;;;;;;;5068451;27;53427;-58
2022/03/07 06:56:37;;;;;;;;;49.00;40.75;;;;;;;;5065841;27;51111;-58
2022/03/07 06:59:02;;;;;;;;;40.75;40.25;;;;;;;;5068580;27;51240;-58
2022/03/07 07:01:27;;;;;;;;;44.50;40.00;;;;;;;;5063875;27;51306;-58
2022/03/07 07:03:53;;;;;;;;;43.75;36.75;;;;;;;;5070488;27;51132;-59
2022/03/07 07:06:18;;;;;;;;;44.50;39.50;;;;;;;;5067316;27;52123;-58
2022/03/07 07:08:43;;;;;;;;;39.25;33.75;;;;;;;;5065579;27;51216;-58
2022/03/07 07:11:08;;;;;;;;;20.75;20.75;;;;;;;;5072174;28;50869;-58
2022/03/07 07:13:33;;;;;;;;;46.75;43.00;;;;;;;;5053558;27;51171;-58
2022/03/07 07:15:59;;;;;;;;;35.00;33.00;;;;;;;;5065114;27;51282;-58
2022/03/07 07:18:25;;;;;;;;;22.75;20.75;;;;;;;;5064617;27;51156;-59
2022/03/07 07:20:50;;;;;;;;;48.75;44.25;;;;;;;;5059533;27;51381;-59
2022/03/07 07:23:16;;;;;;;;;44.75;39.50;;;;;;;;5070857;27;52141;-59
2022/03/07 07:25:41;;;;;;;;;48.50;42.25;;;;;;;;5067284;27;51589;-60
2022/03/07 07:28:07;;;;;;;;;41.75;35.75;;;;;;;;5068429;27;51215;-60
2022/03/07 07:30:32;;;;;;;;;43.50;40.50;;;;;;;;5060371;27;51390;-60
2022/03/07 07:32:57;;;;;;;;;44.25;40.25;;;;;;;;5065459;27;52000;-60
2022/03/07 07:35:22;;;;;;;;;43.25;40.25;;;;;;;;5067669;28;51147;-60
2022/03/07 07:37:48;;;;;;;;;51.00;43.00;;;;;;;;5074768;27;51222;-59
2022/03/07 07:40:14;;;;;;;;;47.25;41.50;;;;;;;;5070613;27;51313;-60
2022/03/07 07:42:39;;;;;;;;;47.00;43.00;;;;;;;;5072157;28;52126;-60
2022/03/07 07:45:04;;;;;;;;;53.50;42.75;;;;;;;;5060423;27;51049;-63
2022/03/07 07:47:29;;;;;;;;;53.75;45.75;;;;;;;;5061455;27;51343;-60
2022/03/07 07:49:55;;;;;;;;;41.25;35.25;;;;;;;;5060729;27;51476;-60
2022/03/07 07:52:20;;;;;;;;;40.25;37.25;;;;;;;;5067221;27;52238;-62
2022/03/07 07:54:45;;;;;;;;;49.50;42.50;;;;;;;;5064730;28;51045;-60
2022/03/07 07:57:12;;;;;;;;;47.75;41.25;;;;;;;;5070054;27;53366;-59
2022/03/07 07:59:37;;;;;;;;;50.00;42.00;;;;;;;;5070268;27;50927;-58
2022/03/07 08:02:03;;;;;;;;;49.75;42.25;;;;;;;;5069968;27;51736;-58
2022/03/07 08:04:28;;;;;;;;;51.00;41.50;;;;;;;;5072617;27;50966;-58
2022/03/07 08:06:53;;;;;;;;;45.25;39.00;;;;;;;;5067689;27;51042;-58
2022/03/07 08:09:19;;;;;;;;;49.25;40.00;;;;;;;;5069812;27;51279;-59
2022/03/07 08:11:47;;;;;;;;;47.25;39.50;;;;;;;;5073261;27;52171;-59
2022/03/07 08:14:12;;;;;;;;;43.00;38.00;;;;;;;;5072040;28;51012;-59
2022/03/07 08:16:37;;;;;;;;;43.25;38.50;;;;;;;;5073883;27;51117;-59
2022/03/07 08:19:03;;;;;;;;;46.25;40.25;;;;;;;;5077250;27;51338;-63
2022/03/07 08:21:28;;;;;;;;;49.75;41.25;;;;;;;;5074206;27;51118;-60
2022/03/07 08:23:54;;;;;;;;;41.50;36.50;;;;;;;;5071829;28;51100;-59
2022/03/07 08:26:19;;;;;;;;;50.00;40.75;;;;;;;;5074700;27;50994;-59
2022/03/07 08:28:44;;;;;;;;;46.00;39.75;;;;;;;;5072005;27;51055;-60
2022/03/07 08:31:10;;;;;;;;;41.75;37.00;;;;;;;;5074144;27;51094;-59
2022/03/07 08:33:35;;;;;;;;;44.25;38.50;;;;;;;;5072654;27;51507;-58
2022/03/07 08:36:01;;;;;;;;;46.50;39.25;;;;;;;;5072658;27;50986;-59
2022/03/07 08:38:27;;;;;;;;;48.50;40.50;;;;;;;;5073998;27;51312;-59
2022/03/07 08:40:53;;;;;;;;;42.50;36.50;;;;;;;;5073953;27;51325;-59
2022/03/07 08:43:18;;;;;;;;;43.50;38.25;;;;;;;;5073288;27;51035;-59
2022/03/07 08:45:44;;;;;;;;;45.25;38.25;;;;;;;;5078590;27;51146;-60
2022/03/07 08:48:09;;;;;;;;;45.00;38.25;;;;;;;;5078733;27;51100;-59
2022/03/07 08:50:34;;;;;;;;;42.25;37.25;;;;;;;;5073002;28;51134;-60
2022/03/07 08:53:00;;;;;;;;;42.50;36.25;;;;;;;;5072448;27;51075;-59
2022/03/07 08:55:25;;;;;;;;;46.25;40.00;;;;;;;;5069044;27;51220;-59
2022/03/07 08:57:50;;;;;;;;;43.00;38.00;;;;;;;;5073408;27;51181;-58
2022/03/07 09:00:15;;;;;;;;;45.50;37.00;;;;;;;;5071514;27;51752;-59
2022/03/07 09:02:41;;;;;;;;;37.25;33.75;;;;;;;;5073754;27;51059;-59
2022/03/07 09:05:06;;;;;;;;;42.50;36.50;;;;;;;;5073727;27;51827;-59
2022/03/07 09:07:31;;;;;;;;;38.75;34.75;;;;;;;;5074178;27;51027;-60
2022/03/07 09:09:57;;;;;;;;;44.75;37.25;;;;;;;;5071989;28;53913;-61
2022/03/07 09:12:27;;;;;;;;;39.50;35.00;;;;;;;;5073383;28;51096;-61
2022/03/07 09:14:52;;;;;;;;;39.50;34.25;;;;;;;;5072430;27;51100;-61
2022/03/07 09:17:17;;;;;;;;;38.25;34.25;;;;;;;;5073984;27;50942;-66
2022/03/07 09:19:43;;;;;;;;;39.75;34.75;;;;;;;;5072108;28;53093;-67
2022/03/07 09:22:08;;;;;;;;;30.25;29.00;;;;;;;;5072128;27;50942;-66
2022/03/07 09:24:33;;;;;;;;;43.50;37.75;;;;;;;;5073042;27;51129;-65
2022/03/07 09:26:58;;;;;;;;;34.00;31.00;;;;;;;;5071152;27;51075;-65
2022/03/07 09:29:24;;;;;;;;;44.50;38.00;;;;;;;;5071888;27;53044;-65
2022/03/07 09:31:49;;;;;;;;;45.25;38.50;;;;;;;;5071383;28;51261;-61
2022/03/07 09:34:14;;;;;;;;;47.00;38.50;;;;;;;;5073315;28;51079;-62
2022/03/07 09:36:40;;;;;;;;;44.75;38.00;;;;;;;;5071900;27;51128;-61
2022/03/07 09:39:05;;;;;;;;;42.50;34.75;;;;;;;;5071795;27;51707;-62
2022/03/07 09:41:31;;;;;;;;;34.00;30.75;;;;;;;;5078845;27;51072;-62
2022/03/07 09:43:56;;;;;;;;;43.75;38.00;;;;;;;;5080458;27;51031;-61
2022/03/07 09:46:21;;;;;;;;;46.25;38.00;;;;;;;;5073572;28;50967;-60
2022/03/07 09:48:46;;;;;;;;;44.50;37.75;;;;;;;;5073026;27;52267;-61
2022/03/07 09:51:12;;;;;;;;;46.25;37.00;;;;;;;;5071819;27;51242;-61
2022/03/07 09:53:37;;;;;;;;;46.75;38.00;;;;;;;;5072007;27;51026;-63
2022/03/07 09:56:02;;;;;;;;;38.00;34.50;;;;;;;;5072872;27;51141;-60
2022/03/07 09:58:28;;;;;;;;;40.25;36.75;;;;;;;;5072201;27;52605;-63
2022/03/07 10:01:04;;;;;;;;;41.25;36.75;;;;;;;;5072937;27;51142;-62
2022/03/07 10:03:29;;;;;;;;;41.75;37.00;;;;;;;;5072931;27;50977;-61
2022/03/07 10:05:54;;;;;;;;;39.00;35.00;;;;;;;;5072667;27;51140;-62
2022/03/07 10:08:24;;;;;;;;;36.75;34.50;;;;;;;;5070710;27;53961;-62
2022/03/07 10:10:53;;;;;;;;;34.50;31.50;;;;;;;;5070775;27;51245;-60
2022/03/07 10:13:19;;;;;;;;;37.00;34.00;;;;;;;;5072622;27;51072;-60
2022/03/07 10:15:53;;;;;;;;;35.00;32.25;;;;;;;;5072703;27;50906;-64
2022/03/07 10:18:19;;;;;;;;;40.50;35.25;;;;;;;;5070651;27;53082;-64
2022/03/07 10:20:48;;;;;;;;;40.75;36.00;;;;;;;;5071358;28;51040;-65
2022/03/07 10:23:13;;;;;;;;;38.00;32.50;;;;;;;;5071363;28;51057;-63
2022/03/07 10:25:42;;;;;;;;;40.00;35.50;;;;;;;;5073194;28;50880;-64
2022/03/07 10:28:08;;;;;;;;;40.50;34.50;;;;;;;;5072800;28;51023;-64
2022/03/07 10:30:35;;;;;;;;;39.25;35.50;;;;;;;;5071659;28;51178;-64
2022/03/07 10:33:03;;;;;;;;;34.00;31.25;;;;;;;;5071383;28;50992;-64
2022/03/07 10:35:30;;;;;;;;;37.00;33.75;;;;;;;;5072598;27;50837;-63
2022/03/07 10:38:00;;;;;;;;;33.00;30.50;;;;;;;;5072602;28;52134;-63
2022/03/07 10:40:25;;;;;;;;;35.25;33.00;;;;;;;;5071336;28;51004;-63
2022/03/07 10:42:54;;;;;;;;;38.50;35.75;;;;;;;;5071182;28;51003;-64
2022/03/07 10:45:20;;;;;;;;;40.75;35.50;;;;;;;;5073053;28;51249;-63
2022/03/07 10:47:59;;;;;;;;;39.25;34.25;;;;;;;;5072323;28;51120;-63
2022/03/07 10:50:26;;;;;;;;;33.75;31.00;;;;;;;;5071997;28;50926;-64
2022/03/07 10:52:52;;;;;;;;;37.25;34.50;;;;;;;;5072549;27;50882;-64
2022/03/07 10:55:22;;;;;;;;;31.75;29.50;;;;;;;;5072361;28;51030;-63
2022/03/07 10:57:47;;;;;;;;;40.00;35.25;;;;;;;;5070849;28;51663;-64
2022/03/07 11:00:14;;;;;;;;;45.75;38.00;;;;;;;;5072324;28;51017;-65
2022/03/07 11:02:46;;;;;;;;;35.25;34.00;;;;;;;;5070886;28;51099;-63
2022/03/07 11:05:13;;;;;;;;;37.75;35.50;;;;;;;;5072590;27;51106;-64
2022/03/07 11:07:39;;;;;;;;;30.50;29.00;;;;;;;;5071732;28;53756;-64
2022/03/07 11:10:06;;;;;;;;;37.00;32.00;;;;;;;;5072398;28;51028;-64
2022/03/07 11:12:32;;;;;;;;;37.75;34.50;;;;;;;;5072283;28;50905;-64
2022/03/07 11:15:00;;;;;;;;;39.00;34.25;;;;;;;;5072288;28;50861;-64
2022/03/07 11:17:27;;;;;;;;;21.75;19.75;;;;;;;;5070850;28;54068;-63
2022/03/07 11:19:54;;;;;;;;;27.50;27.50;;;;;;;;5072279;28;51049;-64
2022/03/07 11:22:20;;;;;;;;;28.75;26.00;;;;;;;;5072582;28;50923;-64
2022/03/07 11:24:45;;;;;;;;;38.25;35.75;;;;;;;;5072070;28;50862;-63
2022/03/07 11:27:11;;;;;;;;;34.25;32.75;;;;;;;;5071793;27;51838;-64
2022/03/07 11:29:37;;;;;;;;;26.75;22.25;;;;;;;;5071417;27;50887;-63
2022/03/07 11:32:05;;;;;;;;;30.50;29.75;;;;;;;;5069805;28;51222;-64
2022/03/07 11:34:30;;;;;;;;;32.25;31.75;;;;;;;;5071278;28;50987;-63
2022/03/07 11:36:55;;;;;;;;;26.75;23.50;;;;;;;;5075495;27;51735;-64
2022/03/07 11:39:30;;;;;;;;;31.25;30.75;;;;;;;;5067202;28;51141;-63
2022/03/07 11:42:06;;;;;;;;;34.75;33.00;;;;;;;;5070317;28;51130;-63
2022/03/07 11:44:31;;;;;;;;;24.00;24.00;;;;;;;;5058424;28;51076;-63
2022/03/07 11:47:07;;;;;;;;;39.25;36.00;;;;;;;;5074860;28;51645;-63
2022/03/07 11:49:32;;;;;;;;;35.75;32.00;;;;;;;;5073628;28;51102;-64
2022/03/07 11:51:59;;;;;;;;;40.00;37.25;;;;;;;;5073134;28;50946;-62
2022/03/07 11:54:24;;;;;;;;;23.75;23.75;;;;;;;;5075265;28;51021;-63
2022/03/07 11:56:49;;;;;;;;;30.50;29.50;;;;;;;;5074882;27;51162;-63
2022/03/07 11:59:15;;;;;;;;;37.00;34.75;;;;;;;;5075102;28;51013;-63
2022/03/07 12:01:50;;;;;;;;;30.50;25.50;;;;;;;;5074730;28;51042;-63
2022/03/07 12:04:15;;;;;;;;;40.50;36.00;;;;;;;;5074776;27;51187;-64
2022/03/07 12:06:43;;;;;;;;;18.50;17.00;;;;;;;;5074244;28;52170;-64
2022/03/07 12:09:09;;;;;;;;;29.25;29.25;;;;;;;;5074532;28;50956;-63
2022/03/07 12:11:35;;;;;;;;;34.50;30.75;;;;;;;;5073103;28;51121;-63
2022/03/07 12:14:03;;;;;;;;;35.25;32.25;;;;;;;;5073465;28;51002;-63
2022/03/07 12:16:28;;;;;;;;;32.25;30.75;;;;;;;;5074241;28;51024;-63
2022/03/07 12:18:54;;;;;;;;;34.50;32.50;;;;;;;;5074780;28;51162;-63
2022/03/07 12:21:25;;;;;;;;;25.50;24.75;;;;;;;;5074718;28;51125;-63
2022/03/07 12:23:50;;;;;;;;;30.00;28.00;;;;;;;;5074979;28;51000;-63
2022/03/07 12:26:16;;;;;;;;;32.75;30.25;;;;;;;;5074280;28;50994;-63
2022/03/07 12:28:43;;;;;;;;;28.50;26.00;;;;;;;;5074591;28;50994;-64
2022/03/07 12:31:09;;;;;;;;;37.25;32.00;;;;;;;;5074467;28;50946;-63
2022/03/07 12:33:34;;;;;;;;;31.50;30.25;;;;;;;;5073427;28;51062;-64
2022/03/07 12:35:59;;;;;;;;;36.75;28.50;;;;;;;;5074075;28;51012;-64
2022/03/07 12:38:25;;;;;;;;;25.25;24.50;;;;;;;;5074554;28;51120;-63
2022/03/07 12:40:50;;;;;;;;;36.75;32.50;;;;;;;;5074519;28;50856;-64
2022/03/07 12:43:15;;;;;;;;;33.75;33.75;;;;;;;;5075115;28;50973;-63
2022/03/07 12:45:45;;;;;;;;;41.75;36.00;;;;;;;;5074429;28;51423;-63
2022/03/07 12:48:10;;;;;;;;;41.25;36.00;;;;;;;;5074692;28;51101;-63
2022/03/07 12:50:36;;;;;;;;;34.00;32.25;;;;;;;;5072597;28;51199;-63
2022/03/07 12:53:01;;;;;;;;;37.50;35.75;;;;;;;;5073426;28;50896;-64
2022/03/07 12:55:26;;;;;;;;;35.25;33.25;;;;;;;;5072524;28;54047;-64
2022/03/07 12:57:58;;;;;;;;;34.00;33.25;;;;;;;;5073418;28;51188;-64
2022/03/07 13:00:23;;;;;;;;;31.50;29.50;;;;;;;;5074290;28;51013;-63
2022/03/07 13:02:54;;;;;;;;;32.75;29.50;;;;;;;;5073053;28;51219;-63
2022/03/07 13:05:21;;;;;;;;;36.75;35.00;;;;;;;;5073661;27;51120;-64
2022/03/07 13:08:00;;;;;;;;;30.25;29.75;;;;;;;;5072368;28;51047;-64
2022/03/07 13:10:25;;;;;;;;;33.50;31.25;;;;;;;;5074156;28;50925;-63
2022/03/07 13:12:52;;;;;;;;;32.25;31.00;;;;;;;;5073929;28;51080;-63
2022/03/07 13:15:17;;;;;;;;;27.75;24.75;;;;;;;;5073751;28;51275;-63
2022/03/07 13:17:42;;;;;;;;;32.50;30.50;;;;;;;;5073711;28;51062;-64
2022/03/07 13:20:10;;;;;;;;;36.50;33.75;;;;;;;;5073761;28;51131;-62
2022/03/07 13:22:36;;;;;;;;;34.25;31.50;;;;;;;;5074469;28;50849;-63
2022/03/07 13:25:01;;;;;;;;;34.75;33.25;;;;;;;;5073871;28;51840;-63
2022/03/07 13:27:26;;;;;;;;;26.75;24.00;;;;;;;;5073995;28;51075;-64
2022/03/07 13:30:03;;;;;;;;;29.75;28.00;;;;;;;;5074000;28;50881;-63
2022/03/07 13:32:31;;;;;;;;;30.25;27.25;;;;;;;;5072105;28;51076;-62
2022/03/07 13:34:58;;;;;;;;;31.25;27.75;;;;;;;;5073641;28;52282;-63
2022/03/07 13:37:27;;;;;;;;;33.25;28.25;;;;;;;;5072867;28;50990;-64
2022/03/07 13:40:07;;;;;;;;;32.00;30.00;;;;;;;;5070159;28;50978;-64
2022/03/07 13:42:34;;;;;;;;;26.75;26.00;;;;;;;;5073484;28;51168;-64
2022/03/07 13:44:59;;;;;;;;;30.25;27.00;;;;;;;;5073165;28;51195;-64
2022/03/07 13:47:26;;;;;;;;;31.00;29.00;;;;;;;;5072763;28;50977;-63
2022/03/07 13:49:53;;;;;;;;;38.00;35.25;;;;;;;;5073570;28;50879;-63
2022/03/07 13:52:19;;;;;;;;;22.50;21.75;;;;;;;;5072911;28;51386;-63
2022/03/07 13:54:44;;;;;;;;;35.25;32.25;;;;;;;;5073168;28;50982;-63
2022/03/07 13:57:10;;;;;;;;;27.25;27.25;;;;;;;;5071497;28;51184;-63
2022/03/07 13:59:36;;;;;;;;;33.50;27.75;;;;;;;;5073228;28;51240;-63
2022/03/07 14:02:12;;;;;;;;;32.50;30.00;;;;;;;;5073241;28;51264;-62
2022/03/07 14:04:38;;;;;;;;;37.25;35.25;;;;;;;;5072999;27;51960;-63
2022/03/07 14:07:04;;;;;;;;;29.75;27.25;;;;;;;;5072729;27;51005;-63
2022/03/07 14:09:29;;;;;;;;;27.00;25.50;;;;;;;;5072375;27;50932;-63